Airfield :
LOGIN :

Register | Disclaimer

   EN    FR    IT 

 










Legend :    VFR   Marginal VFR   IFR   Intensive IFR   Very Intensive IFR
Visi :
Ceiling :
>= 8 km
>= 3000ft
5 to 8 km
1000 to 3000 ft
1500m to 5 km
500 to 1000 ft
800 to 1500m
200 to 500 ft
< 800m
< 200 ft
Symbols :   Thunderstorms  Fog  Heavy snow  Heavy precipitations  Wind > 20 kt
SIGMETs :     Misc.  Thunderstorms  Icing  Turbulence  Mountain Waves  Volcanic Ashes






- Airport Elevation : 157 ft


LESB - Son Bonet

CURRENT METAR :
  • 190630Z AUTO 05008KT 9999 SCT017/// BKN019/// BKN022/// 11/10 Q1016

EXPIRED METARs :
  • 190600Z AUTO 05008KT 9999 BKN038/// BKN042/// OVC048/// 11/10 Q1016
  • 190530Z AUTO 05006KT 9999 FEW013/// SCT016/// BKN028/// 11/10 Q1016
  • 190500Z AUTO 06005KT 9999 DZ FEW015/// SCT018/// OVC023/// 11/10 Q1017
  • 190430Z AUTO 05003KT 9999 SCT015/// BKN018/// BKN021/// 11/10 Q1017
  • 190400Z AUTO 01004KT 9999 FEW012/// SCT021/// BKN029/// 11/10 Q1017

TAF N/A



MET'MAP, your aeronautical weather chart ! - Copyright ORBIFLY December 2007 - Disclaimer

ORBIFLY MET'MAP TEAM :

Programming & Development : Alexandra Zaïnal
Concept & original design : Baudouin d'Aumeries
Assistance for programming : Marc-Olivier Méhu
Technical & hardware support : Manuel Goepfert

Contact : metmap@orbifly.com




SOURCES & CREDITS :

   NOAA